Time;durP1;ratioP1;P1;durP2;ratioP2;P2;SDS_P1;SDS_P2;PMS_P1;PMS_P2;Temp;Humidity;BMP_temperature;BMP_pressure;BME280_temperature;BME280_humidity;BME280_pressure;Samples;Min_cycle;Max_cycle;Signal;HPM_P1;HPM_P2
2022/01/02 00:00:19;;;;;;;7.25;3.85;;;;;;;12.69;69.41;101579.94;3553657;40;20124;-64
2022/01/02 00:03:19;;;;;;;6.70;3.92;;;;;;;12.73;69.41;101572.53;3554575;40;20130;-64
2022/01/02 00:05:45;;;;;;;6.57;3.85;;;;;;;12.72;69.39;101579.75;3555659;40;20132;-63
2022/01/02 00:08:11;;;;;;;5.20;3.90;;;;;;;12.59;69.02;101557.16;3553321;40;20061;-64
2022/01/02 00:10:51;;;;;;;4.32;3.55;;;;;;;12.74;69.45;101587.72;3556824;40;20093;-64
2022/01/02 00:13:35;;;;;;;6.35;3.95;;;;;;;12.76;69.57;101608.28;3556738;40;20065;-63
2022/01/02 00:16:07;;;;;;;7.45;3.95;;;;;;;12.53;69.40;101568.31;3556477;40;20046;-64
2022/01/02 00:18:38;;;;;;;7.38;3.70;;;;;;;12.62;69.26;101588.44;3553592;40;20046;-64
2022/01/02 00:21:10;;;;;;;8.35;4.40;;;;;;;12.75;69.18;101608.38;3556462;40;20046;-64
2022/01/02 00:26:34;;;;;;;6.85;4.20;;;;;;;12.77;69.36;101592.94;3556646;40;20048;-63
2022/01/02 00:29:04;;;;;;;6.75;3.75;;;;;;;12.72;69.14;101586.97;3556299;40;20061;-63
2022/01/02 00:31:32;;;;;;;7.03;3.75;;;;;;;12.80;69.19;101581.13;3556421;40;20052;-63
2022/01/02 00:33:59;;;;;;;5.65;3.80;;;;;;;12.82;69.61;101573.81;3554753;40;20097;-64
2022/01/02 00:36:24;;;;;;;5.55;3.67;;;;;;;12.81;69.40;101577.44;3559525;40;20053;-63
2022/01/02 00:38:50;;;;;;;6.70;3.85;;;;;;;12.78;70.21;101586.59;3560759;40;20060;-64
2022/01/02 00:41:26;;;;;;;10.68;4.18;;;;;;;12.77;70.70;101582.16;3558427;40;20053;-64
2022/01/02 00:44:08;;;;;;;6.82;3.83;;;;;;;12.72;70.94;101579.75;3560995;40;20050;-64
2022/01/02 00:46:51;;;;;;;6.32;4.00;;;;;;;12.67;71.97;101575.56;3557619;40;20050;-65
2022/01/02 00:49:24;;;;;;;6.88;3.92;;;;;;;12.60;72.62;101596.66;3557957;40;20395;-65
2022/01/02 00:52:02;;;;;;;6.20;4.13;;;;;;;12.53;73.75;101597.97;3558151;40;20054;-65
2022/01/02 00:54:31;;;;;;;9.35;4.30;;;;;;;12.41;74.26;101577.09;3557987;40;20112;-65
2022/01/02 00:57:13;;;;;;;6.50;4.43;;;;;;;12.35;75.48;101569.34;3558615;40;20571;-65
2022/01/02 01:00:12;;;;;;;6.70;4.32;;;;;;;12.25;76.71;101574.41;3560616;40;20091;-64
2022/01/02 01:02:52;;;;;;;9.25;4.47;;;;;;;12.16;76.75;101565.00;3550436;40;20056;-64
2022/01/02 01:05:32;;;;;;;8.63;4.82;;;;;;;12.14;76.94;101572.31;3554920;40;20056;-64
2022/01/02 01:08:05;;;;;;;8.95;4.88;;;;;;;12.03;77.26;101547.81;3554349;40;20064;-64
2022/01/02 01:10:36;;;;;;;9.07;4.50;;;;;;;12.02;77.08;101546.94;3554362;40;20053;-64
2022/01/02 01:13:08;;;;;;;5.88;4.68;;;;;;;12.08;77.80;101549.28;3561394;40;20057;-64
2022/01/02 01:15:37;;;;;;;11.15;4.50;;;;;;;11.89;77.65;101515.34;3555204;40;20064;-64
2022/01/02 01:18:03;;;;;;;10.10;4.85;;;;;;;12.06;78.23;101551.19;3555846;40;20134;-64
2022/01/02 01:20:40;;;;;;;7.22;4.35;;;;;;;12.02;78.13;101541.53;3554498;40;20053;-64
2022/01/02 01:23:07;;;;;;;12.40;5.13;;;;;;;12.04;78.11;101539.63;3554241;40;20046;-64
2022/01/02 01:25:33;;;;;;;8.48;4.70;;;;;;;12.01;78.34;101541.63;3557511;40;20391;-64
2022/01/02 01:28:00;;;;;;;10.18;4.43;;;;;;;11.83;78.58;101503.09;3553710;40;20097;-64
2022/01/02 01:30:28;;;;;;;7.95;4.10;;;;;;;11.96;78.70;101524.84;3555966;40;20055;-64
2022/01/02 01:32:54;;;;;;;9.63;4.85;;;;;;;11.75;78.65;101479.25;3555390;40;20062;-64
2022/01/02 01:35:22;;;;;;;9.27;4.57;;;;;;;11.96;78.65;101523.03;3553756;40;20474;-64
2022/01/02 01:37:49;;;;;;;7.43;4.60;;;;;;;11.97;78.89;101526.59;3556945;40;20486;-64
2022/01/02 01:40:17;;;;;;;10.35;4.65;;;;;;;11.97;79.24;101519.38;3554361;40;20053;-64
2022/01/02 01:42:56;;;;;;;10.57;4.82;;;;;;;11.94;79.05;101521.38;3554295;40;20127;-64
2022/01/02 01:47:49;;;;;;;7.47;4.10;;;;;;;11.91;79.39;101517.03;3555724;40;20303;-64
2022/01/02 01:50:17;;;;;;;13.45;5.00;;;;;;;11.94;78.97;101514.16;3557888;40;20048;-64
2022/01/02 01:52:44;;;;;;;6.47;4.13;;;;;;;11.89;79.25;101500.06;3557233;40;20088;-64
2022/01/02 01:55:10;;;;;;;7.45;4.10;;;;;;;11.93;79.27;101492.69;3555642;40;20057;-64
2022/01/02 01:57:39;;;;;;;8.98;4.07;;;;;;;11.92;79.14;101501.72;3554220;40;20063;-64
2022/01/02 02:00:13;;;;;;;8.60;4.57;;;;;;;11.92;79.12;101501.72;3553613;40;20065;-64
2022/01/02 02:02:40;;;;;;;9.75;4.47;;;;;;;11.90;78.95;101484.78;3556821;40;20056;-64
2022/01/02 02:05:06;;;;;;;8.02;4.13;;;;;;;11.94;78.97;101489.03;3559045;40;20049;-64
2022/01/02 02:07:39;;;;;;;8.45;3.85;;;;;;;11.94;79.33;101478.25;3556837;40;20400;-64
2022/01/02 02:10:22;;;;;;;8.40;4.65;;;;;;;11.97;78.74;101470.88;3559360;40;20057;-64
2022/01/02 02:12:49;;;;;;;13.70;4.55;;;;;;;11.95;79.22;101469.22;3553700;40;20127;-64
2022/01/02 02:15:17;;;;;;;11.07;4.63;;;;;;;11.95;79.25;101463.81;3556352;40;20057;-64
2022/01/02 02:17:50;;;;;;;11.25;4.28;;;;;;;11.98;79.18;101458.25;3557072;40;20083;-65
2022/01/02 02:20:26;;;;;;;12.02;4.38;;;;;;;12.00;78.81;101445.59;3558206;40;20057;-64
2022/01/02 02:22:55;;;;;;;9.90;4.40;;;;;;;12.03;79.17;101446.25;3556409;40;20057;-64
2022/01/02 02:25:29;;;;;;;9.43;4.32;;;;;;;12.06;78.82;101445.22;3560047;40;20556;-64
2022/01/02 02:27:59;;;;;;;11.10;4.00;;;;;;;12.04;78.63;101436.34;3556004;40;20074;-65
2022/01/02 02:30:30;;;;;;;14.18;4.05;;;;;;;12.10;78.67;101437.81;3553633;40;20068;-64
2022/01/02 02:32:59;;;;;;;9.77;4.20;;;;;;;12.09;78.27;101423.50;3556930;40;20053;-65
2022/01/02 02:35:28;;;;;;;11.15;4.10;;;;;;;12.13;78.36;101437.66;3557369;40;20045;-64
2022/01/02 02:37:54;;;;;;;9.80;4.40;;;;;;;12.15;78.17;101443.81;3555802;40;20057;-64
2022/01/02 02:40:26;;;;;;;12.85;4.60;;;;;;;12.15;78.18;101439.31;3558299;40;20123;-64
2022/01/02 02:43:05;;;;;;;13.25;4.95;;;;;;;12.19;78.25;101439.97;3555176;40;20097;-64
2022/01/02 02:51:50;;;;;;;8.35;4.47;;;;;;;12.18;78.09;101414.88;3559490;40;20052;-64
2022/01/02 02:54:29;;;;;;;10.68;4.22;;;;;;;12.17;78.15;101405.03;3555474;40;20088;-64
2022/01/02 02:59:30;;;;;;;10.48;4.30;;;;;;;12.17;78.72;101413.09;3557112;40;19937;-64
2022/01/02 03:01:57;;;;;;;9.27;4.67;;;;;;;12.02;78.30;101378.97;3553152;40;20053;-64
2022/01/02 03:04:24;;;;;;;10.27;4.65;;;;;;;12.22;78.50;101411.03;3554285;40;20097;-64
2022/01/02 03:06:50;;;;;;;12.82;4.45;;;;;;;12.21;78.09;101411.09;3555975;40;20123;-64
2022/01/02 03:09:26;;;;;;;10.07;4.57;;;;;;;12.26;77.83;101404.47;3554348;40;20050;-64
2022/01/02 03:11:52;;;;;;;13.05;5.18;;;;;;;12.27;78.25;101406.25;3556282;40;20065;-64
2022/01/02 03:14:17;;;;;;;11.57;4.60;;;;;;;12.25;78.25;101397.34;3557835;40;20130;-64
2022/01/02 03:16:43;;;;;;;12.70;4.65;;;;;;;12.26;78.67;101388.31;3557396;40;20057;-64
2022/01/02 03:19:09;;;;;;;11.07;4.40;;;;;;;12.26;78.53;101399.09;3558945;40;20141;-64
2022/01/02 03:21:34;;;;;;;10.30;4.55;;;;;;;12.15;78.85;101376.44;3556689;40;20100;-64
2022/01/02 03:24:00;;;;;;;10.75;4.63;;;;;;;12.27;78.76;101400.84;3557495;40;20068;-64
2022/01/02 03:26:26;;;;;;;9.90;4.88;;;;;;;12.25;78.75;101399.19;3557480;40;20057;-64
2022/01/02 03:28:51;;;;;;;8.95;4.78;;;;;;;12.29;78.79;101395.34;3556012;40;20111;-64
2022/01/02 03:31:17;;;;;;;12.60;4.72;;;;;;;12.28;78.60;101397.19;3555974;40;20057;-64
2022/01/02 03:33:43;;;;;;;9.32;4.35;;;;;;;12.29;78.46;101400.75;3557120;40;20065;-64
2022/01/02 03:36:09;;;;;;;13.63;4.72;;;;;;;12.31;78.46;101398.81;3558471;40;20089;-64
2022/01/02 03:38:35;;;;;;;8.73;4.07;;;;;;;12.31;78.67;101404.22;3558343;40;20073;-64
2022/01/02 03:41:00;;;;;;;10.15;4.50;;;;;;;12.33;78.53;101410.38;3554442;40;20307;-65
2022/01/02 03:43:26;;;;;;;14.82;4.45;;;;;;;12.28;78.95;101402.56;3553361;40;20053;-64
2022/01/02 03:45:52;;;;;;;17.90;5.20;;;;;;;12.27;78.78;101398.16;3555116;40;20057;-64
2022/01/02 03:48:18;;;;;;;15.38;5.68;;;;;;;12.26;78.76;101387.44;3554139;40;20057;-64
2022/01/02 03:50:44;;;;;;;15.85;4.53;;;;;;;12.26;79.12;101395.53;3553700;40;20424;-64
2022/01/02 03:53:09;;;;;;;14.02;4.82;;;;;;;12.23;78.74;101380.41;3553388;40;20060;-64
2022/01/02 03:55:35;;;;;;;11.25;4.97;;;;;;;12.22;78.85;101365.19;3553378;40;20326;-64
2022/01/02 03:58:02;;;;;;;11.55;4.40;;;;;;;12.24;78.86;101376.75;3554257;40;20064;-64
2022/01/02 04:00:27;;;;;;;9.90;4.32;;;;;;;12.22;79.08;101383.19;3553201;40;20143;-64
2022/01/02 04:02:53;;;;;;;11.85;4.45;;;;;;;12.26;78.62;101360.47;3555216;40;20468;-64
2022/01/02 04:05:19;;;;;;;9.52;4.05;;;;;;;12.20;78.96;101361.72;3551987;40;20357;-65
2022/01/02 04:07:46;;;;;;;15.73;4.90;;;;;;;12.23;79.22;101348.06;3554804;40;20101;-65
2022/01/02 04:10:16;;;;;;;13.27;4.97;;;;;;;12.22;79.31;101348.16;3553104;40;20059;-63
2022/01/02 04:12:43;;;;;;;13.77;4.60;;;;;;;12.13;79.17;101333.41;3554739;40;20064;-63
2022/01/02 04:15:12;;;;;;;6.20;4.00;;;;;;;12.20;78.72;101344.69;3555196;40;20053;-65
2022/01/02 04:17:40;;;;;;;9.27;4.25;;;;;;;12.22;78.52;101342.78;3553225;40;20060;-65
2022/01/02 04:20:09;;;;;;;16.77;4.45;;;;;;;12.20;78.60;101342.84;3557713;40;20076;-65
2022/01/02 04:22:36;;;;;;;12.35;4.60;;;;;;;12.21;78.82;101350.00;3556457;40;20073;-65
2022/01/02 04:25:04;;;;;;;10.88;4.18;;;;;;;12.21;78.60;101351.78;3554272;40;20057;-65
2022/01/02 04:27:29;;;;;;;12.15;4.28;;;;;;;12.22;78.48;101349.03;3556203;40;20411;-65
2022/01/02 04:29:55;;;;;;;8.68;4.38;;;;;;;12.20;78.70;101353.63;3553199;40;20057;-65
2022/01/02 04:32:21;;;;;;;13.30;4.35;;;;;;;12.20;78.93;101345.53;3552926;40;20120;-63
2022/01/02 04:34:47;;;;;;;14.48;4.88;;;;;;;12.20;78.89;101345.53;3557063;40;20045;-63
2022/01/02 04:37:12;;;;;;;7.95;4.05;;;;;;;12.21;78.87;101339.22;3554213;40;20049;-62
2022/01/02 04:39:39;;;;;;;10.70;4.38;;;;;;;12.19;79.60;101338.44;3559404;40;20070;-65
2022/01/02 04:42:06;;;;;;;12.57;4.22;;;;;;;11.97;79.18;101292.19;3553063;40;20123;-65
2022/01/02 04:44:31;;;;;;;8.63;4.00;;;;;;;12.14;79.33;101324.34;3554365;40;20046;-63
2022/01/02 04:46:57;;;;;;;9.43;4.00;;;;;;;12.11;80.04;101321.84;3552348;40;20107;-63
2022/01/02 04:49:23;;;;;;;7.82;3.92;;;;;;;12.10;80.19;101308.47;3552530;40;20058;-63
2022/01/02 04:51:49;;;;;;;8.20;4.65;;;;;;;12.07;80.26;101305.00;3552236;40;20097;-63
2022/01/02 04:54:15;;;;;;;11.10;4.55;;;;;;;12.04;79.91;101301.63;3554857;40;20079;-63
2022/01/02 04:56:41;;;;;;;9.23;4.10;;;;;;;11.97;80.33;101289.47;3553362;40;20061;-63
2022/01/02 04:59:06;;;;;;;8.80;4.18;;;;;;;12.00;80.87;101283.91;3553898;40;20061;-65
2022/01/02 05:01:32;;;;;;;8.32;4.35;;;;;;;11.92;80.64;101261.94;3552482;40;20946;-65
2022/01/02 05:03:58;;;;;;;13.95;4.80;;;;;;;11.97;80.48;101252.63;3552669;40;20060;-65
2022/01/02 05:06:23;;;;;;;11.98;4.50;;;;;;;11.92;80.64;101246.63;3554095;40;20061;-65
2022/01/02 05:08:49;;;;;;;15.00;5.00;;;;;;;11.77;81.09;101218.78;3554166;40;20064;-65
2022/01/02 05:11:15;;;;;;;9.88;4.22;;;;;;;11.93;80.97;101245.69;3556602;40;20049;-64
2022/01/02 05:13:41;;;;;;;11.48;4.68;;;;;;;11.92;81.06;101237.69;3561974;40;20053;-64
2022/01/02 05:16:07;;;;;;;11.57;4.95;;;;;;;11.90;81.06;101239.63;3554316;40;20045;-65
2022/01/02 05:18:33;;;;;;;12.23;4.40;;;;;;;11.89;81.11;101238.75;3554155;40;20072;-65
2022/01/02 05:20:58;;;;;;;10.48;4.97;;;;;;;11.88;81.07;101236.16;3557890;40;20049;-65
2022/01/02 05:23:24;;;;;;;11.70;4.60;;;;;;;11.83;81.27;101229.19;3554362;40;20053;-65
2022/01/02 05:25:50;;;;;;;9.57;4.30;;;;;;;11.80;81.18;101217.75;3555844;40;20062;-65
2022/01/02 05:28:15;;;;;;;10.38;5.13;;;;;;;11.85;81.21;101229.13;3555090;40;20075;-64
2022/01/02 05:30:41;;;;;;;11.10;4.70;;;;;;;11.85;81.03;101219.22;3558112;40;20061;-65
2022/01/02 05:33:10;;;;;;;11.68;5.07;;;;;;;11.82;81.36;101213.97;3559221;40;20052;-64
2022/01/02 05:35:36;;;;;;;8.15;4.47;;;;;;;11.82;81.70;101208.59;3555491;40;20095;-64
2022/01/02 05:38:03;;;;;;;8.63;4.10;;;;;;;11.83;81.35;101206.78;3558869;40;20057;-65
2022/01/02 05:40:31;;;;;;;9.38;4.60;;;;;;;11.83;81.01;101207.66;3560214;40;20061;-64
2022/01/02 05:43:02;;;;;;;8.93;4.30;;;;;;;11.85;80.98;101208.44;3555946;40;20051;-65
2022/01/02 05:45:28;;;;;;;13.07;4.72;;;;;;;11.83;80.83;101201.41;3558976;40;20451;-65
2022/01/02 05:47:54;;;;;;;9.30;4.22;;;;;;;11.84;81.64;101198.63;3558231;40;20060;-65
2022/01/02 05:50:20;;;;;;;13.73;5.28;;;;;;;11.84;81.29;101190.53;3555131;40;20053;-65
2022/01/02 05:52:45;;;;;;;8.02;4.53;;;;;;;11.83;81.27;101180.72;3556637;40;20790;-64
2022/01/02 05:55:11;;;;;;;7.03;4.25;;;;;;;11.73;81.10;101157.97;3555593;40;20490;-65
2022/01/02 05:57:37;;;;;;;13.10;4.70;;;;;;;11.76;80.69;101147.00;3554993;40;20057;-65
2022/01/02 06:00:06;;;;;;;7.13;4.00;;;;;;;11.84;81.00;101152.84;3553781;40;20045;-65
2022/01/02 06:02:32;;;;;;;10.32;4.18;;;;;;;11.83;81.00;101134.91;3552998;40;20069;-62
2022/01/02 06:04:59;;;;;;;10.20;4.00;;;;;;;11.85;80.08;101130.31;3554638;40;20054;-63
2022/01/02 06:07:24;;;;;;;15.82;4.68;;;;;;;11.90;80.19;101143.50;3555456;40;20049;-62
2022/01/02 06:09:50;;;;;;;10.73;4.22;;;;;;;11.87;79.63;101129.38;3559355;40;20159;-62
2022/01/02 06:12:16;;;;;;;10.68;4.13;;;;;;;11.96;79.64;101118.88;3558649;40;20065;-62
2022/01/02 06:14:41;;;;;;;7.25;3.70;;;;;;;11.85;79.64;101114.16;3563469;40;20652;-63
2022/01/02 06:17:07;;;;;;;6.70;3.88;;;;;;;11.85;79.92;101108.78;3561800;40;20060;-63
2022/01/02 06:19:33;;;;;;;6.93;3.58;;;;;;;11.75;79.63;101091.44;3558307;40;20069;-62
2022/01/02 06:22:00;;;;;;;8.60;3.97;;;;;;;11.82;79.37;101108.94;3554674;40;20065;-62
2022/01/02 06:24:26;;;;;;;9.23;4.00;;;;;;;11.84;79.54;101088.19;3562557;40;20083;-62
2022/01/02 06:26:51;;;;;;;7.38;3.78;;;;;;;11.83;79.26;101070.28;3557762;40;20436;-63
2022/01/02 06:29:17;;;;;;;11.15;3.83;;;;;;;11.81;79.51;101061.41;3557344;40;20401;-63
2022/01/02 06:31:42;;;;;;;9.40;3.80;;;;;;;11.78;79.26;101053.53;3555402;40;20054;-63
2022/01/02 06:34:08;;;;;;;7.45;3.53;;;;;;;11.66;79.10;101021.97;3559930;40;20057;-63
2022/01/02 06:36:33;;;;;;;10.07;3.38;;;;;;;11.80;78.88;101038.16;3552403;40;20119;-62
2022/01/02 06:38:59;;;;;;;5.85;3.45;;;;;;;11.77;78.90;101014.09;3557256;40;20061;-63
2022/01/02 06:41:25;;;;;;;5.28;2.97;;;;;;;11.80;78.66;101013.03;3559590;40;20471;-63
2022/01/02 06:43:52;;;;;;;6.20;3.30;;;;;;;11.76;78.24;101006.97;3557807;40;20057;-63
2022/01/02 06:46:21;;;;;;;8.40;3.65;;;;;;;11.54;78.22;100947.38;3558003;40;20054;-63
2022/01/02 06:48:47;;;;;;;7.18;3.33;;;;;;;11.74;78.23;100965.81;3556314;40;20135;-63
2022/01/02 06:51:13;;;;;;;6.80;2.95;;;;;;;11.81;78.57;100974.38;3557015;40;20053;-62
2022/01/02 06:53:39;;;;;;;5.75;3.13;;;;;;;11.80;78.23;100968.13;3557630;40;20387;-62
2022/01/02 06:56:05;;;;;;;6.25;3.33;;;;;;;11.83;78.36;100969.75;3555114;40;20056;-63
2022/01/02 06:58:31;;;;;;;9.98;3.40;;;;;;;11.83;78.00;100973.31;3555292;40;20065;-62
2022/01/02 07:00:57;;;;;;;4.85;3.28;;;;;;;11.82;77.61;100960.78;3554566;40;20092;-63
2022/01/02 07:03:26;;;;;;;9.25;3.40;;;;;;;11.83;77.16;100949.06;3555222;40;20312;-62
2022/01/02 07:05:52;;;;;;;9.55;3.22;;;;;;;11.86;77.43;100953.41;3556275;40;20408;-62
2022/01/02 07:08:18;;;;;;;6.57;3.83;;;;;;;11.88;77.05;100939.84;3553010;40;20064;-65
2022/01/02 07:10:43;;;;;;;8.25;3.33;;;;;;;11.89;77.03;100953.19;3557264;40;22208;-63
2022/01/02 07:13:09;;;;;;;8.52;3.40;;;;;;;11.90;77.29;100949.56;3555572;40;20547;-63
2022/01/02 07:15:34;;;;;;;5.35;3.08;;;;;;;11.89;77.18;100968.50;3557427;40;20045;-63
2022/01/02 07:18:00;;;;;;;8.85;2.85;;;;;;;11.88;76.11;100961.41;3553562;40;20136;-63
2022/01/02 07:20:26;;;;;;;6.93;2.90;;;;;;;11.96;75.81;100986.03;3558197;40;20046;-63
2022/01/02 07:22:52;;;;;;;7.82;2.95;;;;;;;11.97;75.72;100974.28;3555105;40;20396;-63
2022/01/02 07:25:17;;;;;;;7.13;2.90;;;;;;;11.94;75.46;100952.91;3558535;40;20148;-63
2022/01/02 07:27:43;;;;;;;6.18;2.95;;;;;;;11.99;75.43;100940.03;3555907;40;21232;-63
2022/01/02 07:30:10;;;;;;;6.68;2.70;;;;;;;11.98;74.92;100940.97;3556300;40;20132;-63
2022/01/02 07:32:37;;;;;;;6.60;3.08;;;;;;;12.00;74.42;100933.66;3556495;40;20062;-63
2022/01/02 07:35:06;;;;;;;3.83;2.60;;;;;;;12.01;74.80;100925.47;3557285;40;20041;-64
2022/01/02 07:37:33;;;;;;;8.40;3.05;;;;;;;12.04;73.82;100935.16;3556734;40;20088;-63
2022/01/02 07:39:59;;;;;;;7.63;2.72;;;;;;;12.10;73.24;100950.06;3556785;40;20077;-64
2022/01/02 07:42:25;;;;;;;7.75;2.78;;;;;;;12.16;73.18;100950.53;3546439;40;20061;-63
2022/01/02 07:44:51;;;;;;;6.30;2.97;;;;;;;12.19;72.87;100936.00;3555991;40;20065;-64
2022/01/02 07:47:17;;;;;;;4.43;2.78;;;;;;;12.19;73.10;100944.94;3556977;40;20127;-64
2022/01/02 07:49:42;;;;;;;4.95;2.97;;;;;;;12.19;72.59;100963.81;3556709;40;20651;-64
2022/01/02 07:52:08;;;;;;;4.43;2.55;;;;;;;12.21;73.01;100951.09;3555605;40;20046;-64
2022/01/02 07:54:33;;;;;;;4.13;2.67;;;;;;;12.20;73.17;100972.75;3556042;40;20082;-64
2022/01/02 07:57:00;;;;;;;7.38;2.72;;;;;;;12.17;73.80;100973.81;3556866;40;20053;-64
2022/01/02 07:59:25;;;;;;;8.52;2.80;;;;;;;12.10;74.89;100990.50;3555826;40;20373;-65
2022/01/02 08:01:51;;;;;;;4.30;2.60;;;;;;;12.01;75.25;100986.56;3557662;40;20060;-64
2022/01/02 08:04:18;;;;;;;4.85;2.85;;;;;;;11.95;76.38;100970.78;3554465;40;20749;-67
2022/01/02 08:06:45;;;;;;;7.25;3.25;;;;;;;11.87;76.78;100965.06;3554242;40;20126;-64
2022/01/02 08:09:10;;;;;;;4.78;2.70;;;;;;;11.85;76.46;100957.06;3556014;40;20042;-64
2022/01/02 08:11:36;;;;;;;5.82;3.03;;;;;;;11.76;77.61;100968.41;3556620;40;20048;-64
2022/01/02 08:14:01;;;;;;;8.75;3.00;;;;;;;11.69;77.65;100967.94;3554526;40;20108;-65
2022/01/02 08:16:27;;;;;;;9.00;3.20;;;;;;;11.69;77.98;100984.09;3555959;40;20057;-64
2022/01/02 08:18:52;;;;;;;5.15;2.78;;;;;;;11.67;78.15;100983.34;3558229;40;20198;-66
2022/01/02 08:21:18;;;;;;;6.15;3.20;;;;;;;11.62;77.97;100989.00;3557783;40;20049;-66
2022/01/02 08:23:44;;;;;;;3.60;2.65;;;;;;;11.66;77.96;100983.44;3554393;40;20416;-66
2022/01/02 08:26:09;;;;;;;7.20;3.03;;;;;;;11.71;76.45;100994.78;3555123;40;20171;-66
2022/01/02 08:28:35;;;;;;;8.60;2.90;;;;;;;11.67;75.80;100953.72;3556418;40;20159;-66
2022/01/02 08:31:01;;;;;;;5.57;2.90;;;;;;;11.82;75.61;100949.16;3555348;40;20050;-66
2022/01/02 08:33:26;;;;;;;5.88;2.70;;;;;;;11.85;75.49;100974.09;3557176;40;20056;-66
2022/01/02 08:35:52;;;;;;;4.63;2.72;;;;;;;11.89;74.76;100984.66;3555451;40;20061;-66
2022/01/02 08:38:17;;;;;;;7.50;3.20;;;;;;;11.94;74.09;100971.78;3554660;40;20057;-66
2022/01/02 08:40:43;;;;;;;8.15;3.00;;;;;;;11.96;73.72;100964.47;3560815;40;20382;-66
2022/01/02 08:43:09;;;;;;;4.93;2.78;;;;;;;12.06;73.78;100973.66;3559665;40;20057;-66
2022/01/02 08:45:36;;;;;;;4.45;2.83;;;;;;;12.09;71.80;100970.78;3559752;40;20056;-66
2022/01/02 08:48:03;;;;;;;4.28;2.40;;;;;;;12.23;71.72;100970.72;3560178;40;20083;-66
2022/01/02 08:50:29;;;;;;;6.18;3.03;;;;;;;12.32;71.42;100975.50;3563283;40;20049;-66
2022/01/02 08:52:55;;;;;;;3.38;2.70;;;;;;;12.14;70.53;100954.28;3555006;40;20054;-67
2022/01/02 08:55:21;;;;;;;5.95;2.90;;;;;;;12.51;70.39;100993.13;3558055;40;20564;-66
2022/01/02 08:57:46;;;;;;;5.47;2.97;;;;;;;12.55;70.21;100995.50;3557272;40;20163;-66
2022/01/02 09:00:13;;;;;;;6.20;3.00;;;;;;;12.35;69.75;100950.16;3558700;40;20058;-66
2022/01/02 09:02:38;;;;;;;5.97;2.65;;;;;;;12.66;69.91;100985.84;3558060;40;20311;-66
2022/01/02 09:05:04;;;;;;;6.18;3.00;;;;;;;12.68;69.18;100984.75;3562982;40;20079;-66
2022/01/02 09:07:30;;;;;;;6.88;3.17;;;;;;;12.71;69.05;100987.25;3560608;40;20065;-66
2022/01/02 09:09:56;;;;;;;5.88;3.45;;;;;;;12.73;68.74;100973.66;3557837;40;20057;-67
2022/01/02 09:12:22;;;;;;;5.78;3.50;;;;;;;12.74;69.04;100976.25;3557141;40;20053;-66
2022/01/02 09:14:47;;;;;;;5.70;3.47;;;;;;;12.84;68.70;100972.91;3557895;40;20057;-66
2022/01/02 09:17:13;;;;;;;5.32;3.72;;;;;;;12.84;69.12;100984.56;3555082;40;20581;-66
2022/01/02 09:19:39;;;;;;;4.57;3.28;;;;;;;12.94;68.55;100977.59;3554866;40;20061;-66
2022/01/02 09:22:05;;;;;;;8.38;3.20;;;;;;;12.97;68.40;100968.38;3560877;40;20179;-66
2022/01/02 09:24:31;;;;;;;5.60;3.22;;;;;;;12.98;68.78;100967.44;3560273;40;20048;-66
2022/01/02 09:26:57;;;;;;;7.80;3.17;;;;;;;13.07;68.64;100971.34;3556906;40;20053;-66
2022/01/02 09:29:23;;;;;;;7.65;3.80;;;;;;;12.83;68.78;100925.34;3561363;40;20415;-66
2022/01/02 09:31:50;;;;;;;6.53;3.67;;;;;;;13.04;68.44;100947.25;3560814;40;20069;-66
2022/01/02 09:34:16;;;;;;;6.57;3.70;;;;;;;13.31;68.60;100987.66;3559811;40;20319;-66
2022/01/02 09:36:42;;;;;;;6.47;4.03;;;;;;;13.27;67.83;100953.75;3556973;40;20064;-66
2022/01/02 09:39:08;;;;;;;5.60;3.63;;;;;;;13.52;67.55;100977.19;3559548;40;20070;-66
2022/01/02 09:41:33;;;;;;;6.70;3.78;;;;;;;13.60;67.25;100978.31;3557411;40;20095;-63
2022/01/02 09:44:00;;;;;;;7.88;3.90;;;;;;;13.64;67.02;100976.31;3562857;40;20061;-64
2022/01/02 09:46:28;;;;;;;7.88;4.10;;;;;;;13.68;66.61;100980.50;3561678;40;20055;-64
2022/01/02 09:48:55;;;;;;;7.28;3.90;;;;;;;13.70;67.49;100987.53;3556092;40;20626;-64
2022/01/02 09:51:25;;;;;;;8.75;5.80;;;;;;;13.67;66.87;100993.16;3558681;40;20076;-64
2022/01/02 09:53:54;;;;;;;8.70;4.20;;;;;;;13.58;67.11;100987.53;3554315;40;20054;-65
2022/01/02 09:56:20;;;;;;;5.70;3.78;;;;;;;13.64;66.84;101001.47;3557606;40;20065;-65
2022/01/02 09:58:47;;;;;;;6.78;4.30;;;;;;;13.62;67.39;100997.16;3557659;40;20115;-64
2022/01/02 10:01:24;;;;;;;5.40;3.72;;;;;;;13.61;66.19;100996.28;3556022;40;20056;-64
2022/01/02 10:03:54;;;;;;;7.60;4.13;;;;;;;13.72;66.63;101000.91;3556817;40;20137;-66
2022/01/02 10:06:36;;;;;;;8.38;4.45;;;;;;;13.79;66.25;100987.81;3557506;40;20061;-65
2022/01/02 10:09:02;;;;;;;7.43;4.55;;;;;;;13.95;65.90;100993.81;3558176;40;20060;-65
2022/01/02 10:11:28;;;;;;;8.00;4.00;;;;;;;14.12;65.59;101011.53;3555767;40;20063;-64
2022/01/02 10:14:01;;;;;;;8.05;3.70;;;;;;;14.35;64.43;101023.31;3559768;40;20053;-64
2022/01/02 10:16:32;;;;;;;8.75;4.80;;;;;;;14.33;63.90;101023.41;3559762;40;20057;-64
2022/01/02 10:19:18;;;;;;;9.82;4.60;;;;;;;14.24;64.61;101004.31;3558044;40;20057;-64
2022/01/02 10:22:12;;;;;;;7.57;3.88;;;;;;;14.22;64.84;101006.28;3554818;40;20730;-64
2022/01/02 10:24:47;;;;;;;8.82;3.95;;;;;;;13.94;65.17;100965.06;3559852;40;20061;-64
2022/01/02 10:27:19;;;;;;;10.80;5.55;;;;;;;14.09;65.67;100996.38;3556417;40;20058;-64
2022/01/02 10:29:57;;;;;;;9.23;4.35;;;;;;;14.02;65.52;100984.31;3556619;40;20505;-64
2022/01/02 10:32:39;;;;;;;7.28;4.13;;;;;;;14.06;65.82;100991.19;3556804;40;20057;-64
2022/01/02 10:35:23;;;;;;;7.35;3.92;;;;;;;13.99;66.19;100984.53;3555203;40;20052;-64
2022/01/02 10:37:57;;;;;;;9.65;4.13;;;;;;;14.04;66.14;100976.94;3554692;40;20050;-64
2022/01/02 10:40:35;;;;;;;10.38;4.97;;;;;;;14.04;66.74;100979.63;3554957;40;20428;-64
2022/01/02 10:43:26;;;;;;;7.18;3.80;;;;;;;14.11;65.50;100993.56;3555940;40;20061;-64
2022/01/02 10:45:55;;;;;;;13.35;4.47;;;;;;;14.07;66.10;100986.66;3554157;40;20093;-64
2022/01/02 10:48:40;;;;;;;5.75;3.50;;;;;;;14.00;66.49;100983.53;3553702;40;20061;-63
2022/01/02 10:51:09;;;;;;;6.00;3.30;;;;;;;13.99;66.53;100994.47;3556519;40;20053;-64
2022/01/02 10:53:49;;;;;;;8.27;3.88;;;;;;;14.01;66.57;100987.09;3554632;40;20057;-64
2022/01/02 10:56:16;;;;;;;8.75;3.45;;;;;;;14.06;66.10;100983.09;3554100;40;20681;-64
2022/01/02 10:58:47;;;;;;;9.68;4.03;;;;;;;13.96;66.82;100971.25;3552724;40;20075;-64
2022/01/02 11:01:15;;;;;;;7.07;3.85;;;;;;;13.93;66.74;100969.63;3557030;40;20119;-64
2022/01/02 11:03:45;;;;;;;8.77;3.90;;;;;;;13.93;66.93;100975.03;3556298;40;20069;-64
2022/01/02 11:06:22;;;;;;;9.45;3.50;;;;;;;14.01;66.87;100987.09;3556018;40;20060;-64
2022/01/02 11:08:57;;;;;;;10.48;3.45;;;;;;;14.17;66.99;100964.22;3557267;40;20089;-64
2022/01/02 11:11:23;;;;;;;7.85;3.83;;;;;;;14.49;65.40;100981.72;3557697;40;20124;-64
2022/01/02 11:13:50;;;;;;;7.68;3.85;;;;;;;14.66;65.26;100985.88;3557648;40;20049;-64
2022/01/02 11:16:18;;;;;;;7.97;3.83;;;;;;;14.72;64.15;100977.31;3554572;40;20311;-64
2022/01/02 11:18:46;;;;;;;6.63;3.60;;;;;;;14.88;64.40;100995.94;3555038;40;20058;-64
2022/01/02 11:21:14;;;;;;;7.25;3.22;;;;;;;15.09;63.35;100970.72;3555724;40;20061;-64
2022/01/02 11:24:24;;;;;;;6.13;3.47;;;;;;;15.55;63.02;100977.06;3557581;40;20664;-64
2022/01/02 11:26:59;;;;;;;7.93;3.80;;;;;;;15.90;61.39;100976.94;3512780;40;20584;-65
2022/01/02 11:29:30;;;;;;;9.65;3.83;;;;;;;16.10;61.03;100960.88;3555926;40;20044;-65
2022/01/02 11:31:56;;;;;;;6.90;3.15;;;;;;;16.22;59.67;100978.84;3557261;40;20053;-65
2022/01/02 11:34:46;;;;;;;10.32;4.07;;;;;;;16.14;60.50;100979.50;3558834;40;20080;-64
2022/01/02 11:37:12;;;;;;;7.45;3.80;;;;;;;16.16;59.98;100979.34;3558430;40;20064;-65
2022/01/02 11:40:05;;;;;;;6.13;3.78;;;;;;;15.96;60.48;100957.47;3554090;40;20065;-65
2022/01/02 11:42:40;;;;;;;8.33;3.50;;;;;;;16.02;60.51;100975.09;3559504;40;20065;-65